sensor_id;sensor_type;location;lat;lon;timestamp;P1;durP1;ratioP1;P2;durP2;ratioP2
75139;SDS011;63714;55.812;37.658;2023-06-14T00:01:57;6.60;;;3.33;;
75139;SDS011;63714;55.812;37.658;2023-06-14T00:04:23;5.35;;;3.10;;
75139;SDS011;63714;55.812;37.658;2023-06-14T00:06:50;5.93;;;3.40;;
75139;SDS011;63714;55.812;37.658;2023-06-14T00:09:16;7.43;;;3.40;;
75139;SDS011;63714;55.812;37.658;2023-06-14T00:11:45;6.13;;;3.05;;
75139;SDS011;63714;55.812;37.658;2023-06-14T00:14:11;7.65;;;2.90;;
75139;SDS011;63714;55.812;37.658;2023-06-14T00:16:36;6.95;;;3.50;;
75139;SDS011;63714;55.812;37.658;2023-06-14T00:19:04;6.15;;;3.38;;
75139;SDS011;63714;55.812;37.658;2023-06-14T00:21:30;5.55;;;3.10;;
75139;SDS011;63714;55.812;37.658;2023-06-14T00:23:57;5.15;;;3.45;;
75139;SDS011;63714;55.812;37.658;2023-06-14T00:26:23;5.47;;;3.55;;
75139;SDS011;63714;55.812;37.658;2023-06-14T00:28:50;6.55;;;3.45;;
75139;SDS011;63714;55.812;37.658;2023-06-14T00:31:16;5.15;;;2.90;;
75139;SDS011;63714;55.812;37.658;2023-06-14T00:33:42;5.60;;;3.17;;
75139;SDS011;63714;55.812;37.658;2023-06-14T00:36:07;8.30;;;3.22;;
75139;SDS011;63714;55.812;37.658;2023-06-14T00:38:33;7.20;;;3.40;;
75139;SDS011;63714;55.812;37.658;2023-06-14T00:40:58;7.53;;;3.40;;
75139;SDS011;63714;55.812;37.658;2023-06-14T00:43:25;7.45;;;3.30;;
75139;SDS011;63714;55.812;37.658;2023-06-14T00:45:50;6.88;;;3.03;;
75139;SDS011;63714;55.812;37.658;2023-06-14T00:48:16;10.05;;;3.30;;
75139;SDS011;63714;55.812;37.658;2023-06-14T00:50:43;8.25;;;3.38;;
75139;SDS011;63714;55.812;37.658;2023-06-14T00:53:14;6.47;;;3.50;;
75139;SDS011;63714;55.812;37.658;2023-06-14T00:55:42;6.28;;;3.53;;
75139;SDS011;63714;55.812;37.658;2023-06-14T00:58:09;7.35;;;3.67;;
75139;SDS011;63714;55.812;37.658;2023-06-14T01:00:36;8.15;;;3.47;;
75139;SDS011;63714;55.812;37.658;2023-06-14T01:03:02;8.60;;;3.35;;
75139;SDS011;63714;55.812;37.658;2023-06-14T01:05:28;6.68;;;3.25;;
75139;SDS011;63714;55.812;37.658;2023-06-14T01:15:55;5.57;;;3.42;;
75139;SDS011;63714;55.812;37.658;2023-06-14T01:18:21;8.40;;;3.55;;
75139;SDS011;63714;55.812;37.658;2023-06-14T01:20:49;7.10;;;3.55;;
75139;SDS011;63714;55.812;37.658;2023-06-14T01:23:19;6.45;;;3.80;;
75139;SDS011;63714;55.812;37.658;2023-06-14T01:25:46;6.20;;;3.58;;
75139;SDS011;63714;55.812;37.658;2023-06-14T01:28:13;6.47;;;2.90;;
75139;SDS011;63714;55.812;37.658;2023-06-14T01:30:42;5.70;;;3.50;;
75139;SDS011;63714;55.812;37.658;2023-06-14T01:33:12;9.30;;;3.40;;
75139;SDS011;63714;55.812;37.658;2023-06-14T01:35:41;10.73;;;4.55;;
75139;SDS011;63714;55.812;37.658;2023-06-14T01:38:08;9.45;;;3.33;;
75139;SDS011;63714;55.812;37.658;2023-06-14T01:40:35;8.27;;;3.70;;
75139;SDS011;63714;55.812;37.658;2023-06-14T01:43:02;10.43;;;3.60;;
75139;SDS011;63714;55.812;37.658;2023-06-14T01:45:29;9.60;;;3.78;;
75139;SDS011;63714;55.812;37.658;2023-06-14T01:47:56;8.27;;;3.55;;
75139;SDS011;63714;55.812;37.658;2023-06-14T01:50:22;6.22;;;3.35;;
75139;SDS011;63714;55.812;37.658;2023-06-14T01:52:47;7.82;;;4.10;;
75139;SDS011;63714;55.812;37.658;2023-06-14T01:55:13;9.60;;;3.85;;
75139;SDS011;63714;55.812;37.658;2023-06-14T01:57:39;6.35;;;3.47;;
75139;SDS011;63714;55.812;37.658;2023-06-14T02:00:05;7.80;;;3.53;;
75139;SDS011;63714;55.812;37.658;2023-06-14T02:02:38;7.85;;;3.70;;
75139;SDS011;63714;55.812;37.658;2023-06-14T02:05:04;7.35;;;3.70;;
75139;SDS011;63714;55.812;37.658;2023-06-14T02:07:30;4.90;;;3.28;;
75139;SDS011;63714;55.812;37.658;2023-06-14T02:09:56;5.30;;;3.47;;
75139;SDS011;63714;55.812;37.658;2023-06-14T02:12:21;6.20;;;3.72;;
75139;SDS011;63714;55.812;37.658;2023-06-14T02:14:47;10.27;;;3.80;;
75139;SDS011;63714;55.812;37.658;2023-06-14T02:17:14;6.82;;;3.60;;
75139;SDS011;63714;55.812;37.658;2023-06-14T02:19:40;8.25;;;4.03;;
75139;SDS011;63714;55.812;37.658;2023-06-14T02:22:06;7.47;;;3.72;;
75139;SDS011;63714;55.812;37.658;2023-06-14T02:24:32;9.57;;;4.05;;
75139;SDS011;63714;55.812;37.658;2023-06-14T02:26:57;9.70;;;3.78;;
75139;SDS011;63714;55.812;37.658;2023-06-14T02:29:23;12.48;;;4.00;;
75139;SDS011;63714;55.812;37.658;2023-06-14T02:31:49;10.45;;;4.15;;
75139;SDS011;63714;55.812;37.658;2023-06-14T02:34:15;10.45;;;4.38;;
75139;SDS011;63714;55.812;37.658;2023-06-14T02:39:09;11.20;;;4.13;;
75139;SDS011;63714;55.812;37.658;2023-06-14T02:41:35;9.52;;;3.88;;
75139;SDS011;63714;55.812;37.658;2023-06-14T02:44:01;9.23;;;4.18;;
75139;SDS011;63714;55.812;37.658;2023-06-14T02:46:27;13.82;;;4.82;;
75139;SDS011;63714;55.812;37.658;2023-06-14T02:48:52;9.18;;;3.78;;
75139;SDS011;63714;55.812;37.658;2023-06-14T02:51:18;7.68;;;3.80;;
75139;SDS011;63714;55.812;37.658;2023-06-14T02:53:44;6.88;;;4.07;;
75139;SDS011;63714;55.812;37.658;2023-06-14T02:56:10;7.63;;;4.32;;
75139;SDS011;63714;55.812;37.658;2023-06-14T02:58:37;12.63;;;4.60;;
75139;SDS011;63714;55.812;37.658;2023-06-14T03:01:04;11.10;;;4.03;;
75139;SDS011;63714;55.812;37.658;2023-06-14T03:03:33;7.18;;;4.35;;
75139;SDS011;63714;55.812;37.658;2023-06-14T03:05:58;10.35;;;4.35;;
75139;SDS011;63714;55.812;37.658;2023-06-14T03:08:30;8.77;;;4.07;;
75139;SDS011;63714;55.812;37.658;2023-06-14T03:10:58;9.27;;;4.25;;
75139;SDS011;63714;55.812;37.658;2023-06-14T03:13:24;5.80;;;3.58;;
75139;SDS011;63714;55.812;37.658;2023-06-14T03:15:49;10.82;;;4.47;;
75139;SDS011;63714;55.812;37.658;2023-06-14T03:18:18;9.13;;;4.55;;
75139;SDS011;63714;55.812;37.658;2023-06-14T03:20:44;11.98;;;4.85;;
75139;SDS011;63714;55.812;37.658;2023-06-14T03:23:11;8.95;;;4.28;;
75139;SDS011;63714;55.812;37.658;2023-06-14T03:25:37;8.32;;;4.50;;
75139;SDS011;63714;55.812;37.658;2023-06-14T03:28:04;8.57;;;5.10;;
75139;SDS011;63714;55.812;37.658;2023-06-14T03:30:31;7.95;;;4.65;;
75139;SDS011;63714;55.812;37.658;2023-06-14T03:32:57;6.95;;;4.32;;
75139;SDS011;63714;55.812;37.658;2023-06-14T03:35:26;9.63;;;4.80;;
75139;SDS011;63714;55.812;37.658;2023-06-14T03:37:53;10.00;;;5.07;;
75139;SDS011;63714;55.812;37.658;2023-06-14T03:40:19;8.90;;;5.45;;
75139;SDS011;63714;55.812;37.658;2023-06-14T03:42:55;10.02;;;5.43;;
75139;SDS011;63714;55.812;37.658;2023-06-14T03:45:21;8.63;;;4.85;;
75139;SDS011;63714;55.812;37.658;2023-06-14T03:47:47;8.43;;;4.68;;
75139;SDS011;63714;55.812;37.658;2023-06-14T03:50:13;7.63;;;5.07;;
75139;SDS011;63714;55.812;37.658;2023-06-14T03:52:40;11.75;;;4.90;;
75139;SDS011;63714;55.812;37.658;2023-06-14T03:55:07;9.15;;;5.07;;
75139;SDS011;63714;55.812;37.658;2023-06-14T03:57:33;8.23;;;4.63;;
75139;SDS011;63714;55.812;37.658;2023-06-14T03:59:59;8.15;;;4.78;;
75139;SDS011;63714;55.812;37.658;2023-06-14T04:02:25;14.90;;;5.22;;
75139;SDS011;63714;55.812;37.658;2023-06-14T04:04:54;10.18;;;5.00;;
75139;SDS011;63714;55.812;37.658;2023-06-14T04:07:20;13.43;;;5.03;;
75139;SDS011;63714;55.812;37.658;2023-06-14T04:09:46;12.13;;;5.38;;
75139;SDS011;63714;55.812;37.658;2023-06-14T04:12:12;12.05;;;4.95;;
75139;SDS011;63714;55.812;37.658;2023-06-14T04:14:39;11.57;;;4.97;;
75139;SDS011;63714;55.812;37.658;2023-06-14T04:17:05;13.15;;;5.50;;
75139;SDS011;63714;55.812;37.658;2023-06-14T04:19:31;13.13;;;5.60;;
75139;SDS011;63714;55.812;37.658;2023-06-14T04:21:57;5.82;;;4.43;;
75139;SDS011;63714;55.812;37.658;2023-06-14T04:24:26;12.07;;;4.53;;
75139;SDS011;63714;55.812;37.658;2023-06-14T04:26:58;12.18;;;4.95;;
75139;SDS011;63714;55.812;37.658;2023-06-14T04:29:24;9.60;;;5.35;;
75139;SDS011;63714;55.812;37.658;2023-06-14T04:31:53;11.88;;;5.25;;
75139;SDS011;63714;55.812;37.658;2023-06-14T04:36:46;10.60;;;4.88;;
75139;SDS011;63714;55.812;37.658;2023-06-14T04:39:18;10.70;;;5.03;;
75139;SDS011;63714;55.812;37.658;2023-06-14T04:41:45;9.55;;;4.60;;
75139;SDS011;63714;55.812;37.658;2023-06-14T04:44:12;10.45;;;4.20;;
75139;SDS011;63714;55.812;37.658;2023-06-14T04:46:38;8.02;;;3.90;;
75139;SDS011;63714;55.812;37.658;2023-06-14T04:49:17;7.00;;;4.47;;
75139;SDS011;63714;55.812;37.658;2023-06-14T04:51:43;7.63;;;3.80;;
75139;SDS011;63714;55.812;37.658;2023-06-14T04:54:11;8.25;;;3.78;;
75139;SDS011;63714;55.812;37.658;2023-06-14T04:56:40;7.95;;;3.65;;
75139;SDS011;63714;55.812;37.658;2023-06-14T04:59:09;8.32;;;3.40;;
75139;SDS011;63714;55.812;37.658;2023-06-14T05:01:36;6.45;;;3.92;;
75139;SDS011;63714;55.812;37.658;2023-06-14T05:04:02;10.35;;;4.00;;
75139;SDS011;63714;55.812;37.658;2023-06-14T05:06:29;10.65;;;3.50;;
75139;SDS011;63714;55.812;37.658;2023-06-14T05:08:56;6.85;;;3.50;;
75139;SDS011;63714;55.812;37.658;2023-06-14T05:11:21;7.68;;;3.22;;
75139;SDS011;63714;55.812;37.658;2023-06-14T05:13:49;8.05;;;3.28;;
75139;SDS011;63714;55.812;37.658;2023-06-14T05:16:15;10.48;;;3.65;;
75139;SDS011;63714;55.812;37.658;2023-06-14T05:18:42;5.10;;;3.45;;
75139;SDS011;63714;55.812;37.658;2023-06-14T05:21:08;7.63;;;3.42;;
75139;SDS011;63714;55.812;37.658;2023-06-14T05:23:34;6.32;;;3.42;;
75139;SDS011;63714;55.812;37.658;2023-06-14T05:25:59;10.10;;;3.45;;
75139;SDS011;63714;55.812;37.658;2023-06-14T05:28:27;9.75;;;3.55;;
75139;SDS011;63714;55.812;37.658;2023-06-14T05:30:53;5.93;;;3.35;;
75139;SDS011;63714;55.812;37.658;2023-06-14T05:33:19;8.60;;;4.22;;
75139;SDS011;63714;55.812;37.658;2023-06-14T05:35:45;5.97;;;3.42;;
75139;SDS011;63714;55.812;37.658;2023-06-14T05:38:10;7.00;;;3.75;;
75139;SDS011;63714;55.812;37.658;2023-06-14T05:40:36;7.07;;;3.55;;
75139;SDS011;63714;55.812;37.658;2023-06-14T05:43:02;7.80;;;3.67;;
75139;SDS011;63714;55.812;37.658;2023-06-14T05:45:27;4.47;;;3.40;;
75139;SDS011;63714;55.812;37.658;2023-06-14T05:47:53;6.13;;;3.90;;
75139;SDS011;63714;55.812;37.658;2023-06-14T05:50:20;6.22;;;2.90;;
75139;SDS011;63714;55.812;37.658;2023-06-14T05:52:46;6.78;;;3.10;;
75139;SDS011;63714;55.812;37.658;2023-06-14T05:55:11;6.07;;;3.05;;
75139;SDS011;63714;55.812;37.658;2023-06-14T05:57:37;6.75;;;2.65;;
75139;SDS011;63714;55.812;37.658;2023-06-14T06:00:03;6.65;;;3.20;;
75139;SDS011;63714;55.812;37.658;2023-06-14T06:02:42;3.42;;;2.85;;
75139;SDS011;63714;55.812;37.658;2023-06-14T06:05:09;5.70;;;2.63;;
75139;SDS011;63714;55.812;37.658;2023-06-14T06:10:01;4.00;;;3.20;;
75139;SDS011;63714;55.812;37.658;2023-06-14T06:12:29;7.07;;;3.28;;
75139;SDS011;63714;55.812;37.658;2023-06-14T06:14:55;4.82;;;2.88;;
75139;SDS011;63714;55.812;37.658;2023-06-14T06:17:21;3.97;;;3.28;;
75139;SDS011;63714;55.812;37.658;2023-06-14T06:19:46;8.50;;;5.18;;
75139;SDS011;63714;55.812;37.658;2023-06-14T06:22:12;3.35;;;2.33;;
75139;SDS011;63714;55.812;37.658;2023-06-14T06:24:38;2.42;;;2.22;;
75139;SDS011;63714;55.812;37.658;2023-06-14T06:27:03;3.17;;;2.20;;
75139;SDS011;63714;55.812;37.658;2023-06-14T06:29:29;3.03;;;2.20;;
75139;SDS011;63714;55.812;37.658;2023-06-14T06:31:55;3.15;;;2.00;;
75139;SDS011;63714;55.812;37.658;2023-06-14T06:34:21;7.28;;;4.35;;
75139;SDS011;63714;55.812;37.658;2023-06-14T06:36:47;5.57;;;2.35;;
75139;SDS011;63714;55.812;37.658;2023-06-14T06:39:13;7.57;;;2.75;;
75139;SDS011;63714;55.812;37.658;2023-06-14T06:41:40;2.72;;;1.92;;
75139;SDS011;63714;55.812;37.658;2023-06-14T06:44:06;4.90;;;2.03;;
75139;SDS011;63714;55.812;37.658;2023-06-14T06:46:32;4.55;;;2.20;;
75139;SDS011;63714;55.812;37.658;2023-06-14T06:48:59;4.80;;;2.13;;
75139;SDS011;63714;55.812;37.658;2023-06-14T06:51:25;3.42;;;2.42;;
75139;SDS011;63714;55.812;37.658;2023-06-14T06:53:54;2.45;;;2.10;;
75139;SDS011;63714;55.812;37.658;2023-06-14T06:56:20;5.18;;;2.70;;
75139;SDS011;63714;55.812;37.658;2023-06-14T06:58:51;4.22;;;2.42;;
75139;SDS011;63714;55.812;37.658;2023-06-14T07:01:17;4.68;;;2.63;;
75139;SDS011;63714;55.812;37.658;2023-06-14T07:03:45;7.13;;;3.28;;
75139;SDS011;63714;55.812;37.658;2023-06-14T07:06:11;2.67;;;2.42;;
75139;SDS011;63714;55.812;37.658;2023-06-14T07:08:37;2.25;;;2.05;;
75139;SDS011;63714;55.812;37.658;2023-06-14T07:11:04;7.60;;;2.67;;
75139;SDS011;63714;55.812;37.658;2023-06-14T07:13:32;5.70;;;2.60;;
75139;SDS011;63714;55.812;37.658;2023-06-14T07:15:58;4.75;;;2.20;;
75139;SDS011;63714;55.812;37.658;2023-06-14T07:18:26;4.57;;;2.13;;
75139;SDS011;63714;55.812;37.658;2023-06-14T07:20:52;4.93;;;3.22;;
75139;SDS011;63714;55.812;37.658;2023-06-14T07:23:20;5.78;;;4.05;;
75139;SDS011;63714;55.812;37.658;2023-06-14T07:25:46;5.20;;;2.67;;
75139;SDS011;63714;55.812;37.658;2023-06-14T07:28:12;5.05;;;2.25;;
75139;SDS011;63714;55.812;37.658;2023-06-14T07:30:37;5.03;;;2.97;;
75139;SDS011;63714;55.812;37.658;2023-06-14T07:33:03;7.20;;;3.08;;
75139;SDS011;63714;55.812;37.658;2023-06-14T07:35:29;4.78;;;2.80;;
75139;SDS011;63714;55.812;37.658;2023-06-14T07:37:55;6.88;;;2.80;;
75139;SDS011;63714;55.812;37.658;2023-06-14T07:40:20;4.38;;;3.97;;
75139;SDS011;63714;55.812;37.658;2023-06-14T07:42:46;6.13;;;3.88;;
75139;SDS011;63714;55.812;37.658;2023-06-14T07:45:13;6.57;;;2.90;;
75139;SDS011;63714;55.812;37.658;2023-06-14T07:47:39;5.75;;;3.25;;
75139;SDS011;63714;55.812;37.658;2023-06-14T07:50:05;5.57;;;4.55;;
75139;SDS011;63714;55.812;37.658;2023-06-14T07:52:31;7.20;;;5.43;;
75139;SDS011;63714;55.812;37.658;2023-06-14T07:54:57;2.88;;;2.67;;
75139;SDS011;63714;55.812;37.658;2023-06-14T07:57:23;9.45;;;2.72;;
75139;SDS011;63714;55.812;37.658;2023-06-14T07:59:49;3.35;;;2.80;;
75139;SDS011;63714;55.812;37.658;2023-06-14T08:02:15;4.30;;;2.97;;
75139;SDS011;63714;55.812;37.658;2023-06-14T08:04:40;3.63;;;2.60;;
75139;SDS011;63714;55.812;37.658;2023-06-14T08:07:07;3.65;;;2.72;;
75139;SDS011;63714;55.812;37.658;2023-06-14T08:09:34;5.80;;;3.53;;
75139;SDS011;63714;55.812;37.658;2023-06-14T08:12:02;6.07;;;3.25;;
75139;SDS011;63714;55.812;37.658;2023-06-14T08:14:33;4.65;;;3.50;;
75139;SDS011;63714;55.812;37.658;2023-06-14T08:16:59;4.78;;;3.17;;
75139;SDS011;63714;55.812;37.658;2023-06-14T08:19:24;3.80;;;3.40;;
75139;SDS011;63714;55.812;37.658;2023-06-14T08:21:50;3.97;;;3.10;;
75139;SDS011;63714;55.812;37.658;2023-06-14T08:24:16;5.75;;;5.25;;
75139;SDS011;63714;55.812;37.658;2023-06-14T08:26:42;6.50;;;5.32;;
75139;SDS011;63714;55.812;37.658;2023-06-14T08:29:08;3.50;;;3.20;;
75139;SDS011;63714;55.812;37.658;2023-06-14T08:31:34;7.60;;;3.25;;
75139;SDS011;63714;55.812;37.658;2023-06-14T08:34:00;3.40;;;2.67;;
75139;SDS011;63714;55.812;37.658;2023-06-14T08:36:25;6.72;;;3.03;;
75139;SDS011;63714;55.812;37.658;2023-06-14T08:38:51;3.20;;;2.90;;
75139;SDS011;63714;55.812;37.658;2023-06-14T08:41:20;4.32;;;3.08;;
75139;SDS011;63714;55.812;37.658;2023-06-14T08:43:48;3.58;;;3.20;;
75139;SDS011;63714;55.812;37.658;2023-06-14T08:46:15;5.03;;;2.70;;
75139;SDS011;63714;55.812;37.658;2023-06-14T08:48:46;2.55;;;2.30;;
75139;SDS011;63714;55.812;37.658;2023-06-14T08:51:14;7.93;;;3.67;;
75139;SDS011;63714;55.812;37.658;2023-06-14T08:53:44;8.07;;;6.05;;
75139;SDS011;63714;55.812;37.658;2023-06-14T08:56:10;3.63;;;3.05;;
75139;SDS011;63714;55.812;37.658;2023-06-14T08:58:42;4.30;;;3.00;;
75139;SDS011;63714;55.812;37.658;2023-06-14T09:01:11;6.68;;;3.63;;
75139;SDS011;63714;55.812;37.658;2023-06-14T09:03:43;4.93;;;3.08;;
75139;SDS011;63714;55.812;37.658;2023-06-14T09:06:10;3.05;;;2.55;;
75139;SDS011;63714;55.812;37.658;2023-06-14T09:08:45;3.03;;;2.72;;
75139;SDS011;63714;55.812;37.658;2023-06-14T09:11:14;4.60;;;3.15;;
75139;SDS011;63714;55.812;37.658;2023-06-14T09:13:41;3.58;;;2.50;;
75139;SDS011;63714;55.812;37.658;2023-06-14T09:16:08;4.38;;;3.00;;
75139;SDS011;63714;55.812;37.658;2023-06-14T09:18:40;5.22;;;3.15;;
75139;SDS011;63714;55.812;37.658;2023-06-14T09:21:16;3.35;;;2.92;;
75139;SDS011;63714;55.812;37.658;2023-06-14T09:23:45;4.03;;;2.90;;
75139;SDS011;63714;55.812;37.658;2023-06-14T09:26:16;5.68;;;3.08;;
75139;SDS011;63714;55.812;37.658;2023-06-14T09:28:45;6.20;;;3.13;;
75139;SDS011;63714;55.812;37.658;2023-06-14T09:31:16;5.03;;;3.17;;
75139;SDS011;63714;55.812;37.658;2023-06-14T09:33:43;3.60;;;2.70;;
75139;SDS011;63714;55.812;37.658;2023-06-14T09:36:17;3.65;;;2.97;;
75139;SDS011;63714;55.812;37.658;2023-06-14T09:38:57;4.47;;;3.10;;
75139;SDS011;63714;55.812;37.658;2023-06-14T09:41:31;3.88;;;3.03;;
75139;SDS011;63714;55.812;37.658;2023-06-14T09:44:02;3.83;;;2.55;;
75139;SDS011;63714;55.812;37.658;2023-06-14T09:46:30;3.78;;;2.85;;
75139;SDS011;63714;55.812;37.658;2023-06-14T09:48:57;3.30;;;3.00;;
75139;SDS011;63714;55.812;37.658;2023-06-14T09:51:23;7.43;;;6.40;;
75139;SDS011;63714;55.812;37.658;2023-06-14T09:53:49;5.60;;;3.03;;
75139;SDS011;63714;55.812;37.658;2023-06-14T09:56:22;3.50;;;3.15;;
75139;SDS011;63714;55.812;37.658;2023-06-14T09:58:54;5.35;;;2.95;;
75139;SDS011;63714;55.812;37.658;2023-06-14T10:01:24;5.63;;;3.67;;
75139;SDS011;63714;55.812;37.658;2023-06-14T10:03:57;5.32;;;3.08;;
75139;SDS011;63714;55.812;37.658;2023-06-14T10:06:26;5.70;;;4.10;;
75139;SDS011;63714;55.812;37.658;2023-06-14T10:08:54;4.50;;;2.58;;
75139;SDS011;63714;55.812;37.658;2023-06-14T10:11:22;7.05;;;4.50;;
75139;SDS011;63714;55.812;37.658;2023-06-14T10:13:50;5.15;;;2.92;;
75139;SDS011;63714;55.812;37.658;2023-06-14T10:16:17;8.05;;;2.90;;
75139;SDS011;63714;55.812;37.658;2023-06-14T10:21:28;4.03;;;2.55;;
75139;SDS011;63714;55.812;37.658;2023-06-14T10:24:03;4.55;;;2.45;;
75139;SDS011;63714;55.812;37.658;2023-06-14T10:26:32;3.28;;;2.40;;
75139;SDS011;63714;55.812;37.658;2023-06-14T10:28:59;4.78;;;2.30;;
75139;SDS011;63714;55.812;37.658;2023-06-14T10:31:39;3.38;;;2.35;;
75139;SDS011;63714;55.812;37.658;2023-06-14T10:34:09;2.55;;;2.35;;
75139;SDS011;63714;55.812;37.658;2023-06-14T10:36:36;5.80;;;2.55;;
75139;SDS011;63714;55.812;37.658;2023-06-14T10:39:06;2.97;;;2.15;;
75139;SDS011;63714;55.812;37.658;2023-06-14T10:41:50;4.35;;;2.53;;
75139;SDS011;63714;55.812;37.658;2023-06-14T10:49:15;5.72;;;2.53;;
75139;SDS011;63714;55.812;37.658;2023-06-14T10:51:45;4.25;;;2.55;;
75139;SDS011;63714;55.812;37.658;2023-06-14T10:54:15;5.70;;;2.80;;
75139;SDS011;63714;55.812;37.658;2023-06-14T10:56:50;5.15;;;2.80;;
75139;SDS011;63714;55.812;37.658;2023-06-14T10:59:18;3.88;;;2.47;;
75139;SDS011;63714;55.812;37.658;2023-06-14T11:01:58;4.45;;;2.58;;
75139;SDS011;63714;55.812;37.658;2023-06-14T11:04:46;5.00;;;2.40;;
75139;SDS011;63714;55.812;37.658;2023-06-14T11:10:33;3.97;;;2.45;;
75139;SDS011;63714;55.812;37.658;2023-06-14T11:13:06;3.67;;;2.67;;
75139;SDS011;63714;55.812;37.658;2023-06-14T11:15:33;3.42;;;2.30;;
75139;SDS011;63714;55.812;37.658;2023-06-14T11:18:00;3.20;;;2.17;;
75139;SDS011;63714;55.812;37.658;2023-06-14T11:20:29;5.18;;;2.38;;
75139;SDS011;63714;55.812;37.658;2023-06-14T11:22:57;4.13;;;2.60;;
75139;SDS011;63714;55.812;37.658;2023-06-14T11:25:22;4.10;;;2.53;;
75139;SDS011;63714;55.812;37.658;2023-06-14T11:27:51;7.28;;;2.60;;
75139;SDS011;63714;55.812;37.658;2023-06-14T11:30:17;3.95;;;2.58;;
75139;SDS011;63714;55.812;37.658;2023-06-14T11:32:47;4.18;;;2.70;;
75139;SDS011;63714;55.812;37.658;2023-06-14T11:35:13;3.67;;;2.35;;
75139;SDS011;63714;55.812;37.658;2023-06-14T11:37:39;7.60;;;2.63;;
75139;SDS011;63714;55.812;37.658;2023-06-14T11:40:07;9.50;;;5.28;;
75139;SDS011;63714;55.812;37.658;2023-06-14T11:42:35;3.17;;;2.20;;
75139;SDS011;63714;55.812;37.658;2023-06-14T11:45:02;3.75;;;2.60;;
75139;SDS011;63714;55.812;37.658;2023-06-14T11:47:32;3.78;;;2.33;;
75139;SDS011;63714;55.812;37.658;2023-06-14T11:52:24;3.45;;;2.33;;
75139;SDS011;63714;55.812;37.658;2023-06-14T11:54:50;6.50;;;2.38;;
75139;SDS011;63714;55.812;37.658;2023-06-14T11:57:19;4.53;;;2.30;;
75139;SDS011;63714;55.812;37.658;2023-06-14T11:59:46;4.75;;;2.53;;
75139;SDS011;63714;55.812;37.658;2023-06-14T12:02:18;4.95;;;2.38;;
75139;SDS011;63714;55.812;37.658;2023-06-14T12:04:48;4.80;;;1.90;;
75139;SDS011;63714;55.812;37.658;2023-06-14T12:07:15;4.72;;;2.28;;
75139;SDS011;63714;55.812;37.658;2023-06-14T12:12:21;2.65;;;2.22;;
75139;SDS011;63714;55.812;37.658;2023-06-14T12:14:47;5.93;;;2.13;;
75139;SDS011;63714;55.812;37.658;2023-06-14T12:17:16;4.32;;;2.17;;
75139;SDS011;63714;55.812;37.658;2023-06-14T12:22:12;3.35;;;2.13;;
75139;SDS011;63714;55.812;37.658;2023-06-14T12:24:39;2.90;;;2.13;;
75139;SDS011;63714;55.812;37.658;2023-06-14T12:27:07;6.18;;;2.40;;
75139;SDS011;63714;55.812;37.658;2023-06-14T12:29:33;3.25;;;2.30;;
75139;SDS011;63714;55.812;37.658;2023-06-14T12:31:59;7.82;;;2.42;;
75139;SDS011;63714;55.812;37.658;2023-06-14T12:34:25;2.78;;;2.35;;
75139;SDS011;63714;55.812;37.658;2023-06-14T12:36:55;4.57;;;2.35;;
75139;SDS011;63714;55.812;37.658;2023-06-14T12:39:22;4.72;;;2.38;;
75139;SDS011;63714;55.812;37.658;2023-06-14T12:41:50;5.07;;;2.28;;
75139;SDS011;63714;55.812;37.658;2023-06-14T12:44:15;7.47;;;2.35;;
75139;SDS011;63714;55.812;37.658;2023-06-14T12:46:42;5.70;;;2.20;;
75139;SDS011;63714;55.812;37.658;2023-06-14T12:49:10;4.78;;;2.00;;
75139;SDS011;63714;55.812;37.658;2023-06-14T12:54:03;4.72;;;2.00;;
75139;SDS011;63714;55.812;37.658;2023-06-14T12:56:28;3.78;;;2.20;;
75139;SDS011;63714;55.812;37.658;2023-06-14T12:58:54;4.38;;;2.40;;
75139;SDS011;63714;55.812;37.658;2023-06-14T13:01:20;2.92;;;2.05;;
75139;SDS011;63714;55.812;37.658;2023-06-14T13:03:46;5.00;;;2.83;;
75139;SDS011;63714;55.812;37.658;2023-06-14T13:06:13;4.43;;;2.13;;
75139;SDS011;63714;55.812;37.658;2023-06-14T13:08:39;3.33;;;2.20;;
75139;SDS011;63714;55.812;37.658;2023-06-14T13:11:05;4.40;;;2.38;;
75139;SDS011;63714;55.812;37.658;2023-06-14T13:13:31;3.05;;;2.08;;
75139;SDS011;63714;55.812;37.658;2023-06-14T13:15:57;4.70;;;2.20;;
75139;SDS011;63714;55.812;37.658;2023-06-14T13:18:22;4.32;;;2.80;;
75139;SDS011;63714;55.812;37.658;2023-06-14T13:20:48;4.45;;;2.20;;
75139;SDS011;63714;55.812;37.658;2023-06-14T13:23:15;2.53;;;1.95;;
75139;SDS011;63714;55.812;37.658;2023-06-14T13:25:41;3.38;;;2.10;;
75139;SDS011;63714;55.812;37.658;2023-06-14T13:28:07;2.63;;;2.10;;
75139;SDS011;63714;55.812;37.658;2023-06-14T13:30:33;3.75;;;2.00;;
75139;SDS011;63714;55.812;37.658;2023-06-14T13:32:59;3.92;;;2.25;;
75139;SDS011;63714;55.812;37.658;2023-06-14T13:35:25;4.88;;;2.13;;
75139;SDS011;63714;55.812;37.658;2023-06-14T13:37:52;2.83;;;1.95;;
75139;SDS011;63714;55.812;37.658;2023-06-14T13:40:17;4.18;;;2.22;;
75139;SDS011;63714;55.812;37.658;2023-06-14T13:42:45;3.83;;;2.38;;
75139;SDS011;63714;55.812;37.658;2023-06-14T13:45:12;3.30;;;2.50;;
75139;SDS011;63714;55.812;37.658;2023-06-14T13:47:38;4.82;;;2.22;;
75139;SDS011;63714;55.812;37.658;2023-06-14T13:50:04;3.28;;;2.17;;
75139;SDS011;63714;55.812;37.658;2023-06-14T13:52:31;3.17;;;2.35;;
75139;SDS011;63714;55.812;37.658;2023-06-14T13:54:56;3.08;;;2.20;;
75139;SDS011;63714;55.812;37.658;2023-06-14T13:57:22;3.58;;;2.30;;
75139;SDS011;63714;55.812;37.658;2023-06-14T13:59:48;2.42;;;2.10;;
75139;SDS011;63714;55.812;37.658;2023-06-14T14:02:14;5.43;;;2.30;;
75139;SDS011;63714;55.812;37.658;2023-06-14T14:04:41;3.25;;;2.35;;
75139;SDS011;63714;55.812;37.658;2023-06-14T14:07:07;3.25;;;2.00;;
75139;SDS011;63714;55.812;37.658;2023-06-14T14:09:33;3.85;;;1.90;;
75139;SDS011;63714;55.812;37.658;2023-06-14T14:12:00;4.72;;;2.38;;
75139;SDS011;63714;55.812;37.658;2023-06-14T14:16:53;4.07;;;1.83;;
75139;SDS011;63714;55.812;37.658;2023-06-14T14:19:23;4.07;;;2.08;;
75139;SDS011;63714;55.812;37.658;2023-06-14T14:21:49;2.88;;;1.95;;
75139;SDS011;63714;55.812;37.658;2023-06-14T14:24:15;4.20;;;2.00;;
75139;SDS011;63714;55.812;37.658;2023-06-14T14:26:41;3.55;;;2.08;;
75139;SDS011;63714;55.812;37.658;2023-06-14T14:29:07;3.78;;;2.13;;
75139;SDS011;63714;55.812;37.658;2023-06-14T14:31:36;3.92;;;2.20;;
75139;SDS011;63714;55.812;37.658;2023-06-14T14:34:02;4.82;;;2.03;;
75139;SDS011;63714;55.812;37.658;2023-06-14T14:36:28;4.80;;;1.75;;
75139;SDS011;63714;55.812;37.658;2023-06-14T14:38:53;3.15;;;1.92;;
75139;SDS011;63714;55.812;37.658;2023-06-14T14:41:19;3.85;;;2.13;;
75139;SDS011;63714;55.812;37.658;2023-06-14T14:43:45;5.63;;;2.40;;
75139;SDS011;63714;55.812;37.658;2023-06-14T14:46:10;5.13;;;2.25;;
75139;SDS011;63714;55.812;37.658;2023-06-14T14:48:36;2.85;;;2.10;;
75139;SDS011;63714;55.812;37.658;2023-06-14T14:51:02;4.07;;;2.00;;
75139;SDS011;63714;55.812;37.658;2023-06-14T14:53:27;3.63;;;2.05;;
75139;SDS011;63714;55.812;37.658;2023-06-14T14:55:53;5.03;;;2.10;;
75139;SDS011;63714;55.812;37.658;2023-06-14T14:58:19;3.22;;;1.98;;
75139;SDS011;63714;55.812;37.658;2023-06-14T15:00:45;2.70;;;2.03;;
75139;SDS011;63714;55.812;37.658;2023-06-14T15:03:11;4.53;;;2.38;;
75139;SDS011;63714;55.812;37.658;2023-06-14T15:05:36;7.00;;;2.50;;
75139;SDS011;63714;55.812;37.658;2023-06-14T15:08:02;3.13;;;2.10;;
75139;SDS011;63714;55.812;37.658;2023-06-14T15:10:29;5.40;;;2.33;;
75139;SDS011;63714;55.812;37.658;2023-06-14T15:12:54;3.78;;;2.05;;